Time;durP1;ratioP1;P1;durP2;ratioP2;P2;SDS_P1;SDS_P2;PMS_P1;PMS_P2;Temp;Humidity;BMP_temperature;BMP_pressure;BME280_temperature;BME280_humidity;BME280_pressure;Samples;Min_cycle;Max_cycle;Signal;HPM_P1;HPM_P2
2022/05/16 00:01:46;;;;;;;5.45;0.90;;;17.20;72.30;;;;;;4971894;28;20376;-84
2022/05/16 00:04:11;;;;;;;8.02;0.93;;;17.20;72.30;;;;;;4972307;28;20031;-85
2022/05/16 00:06:37;;;;;;;6.25;1.02;;;17.10;72.40;;;;;;4970880;28;20029;-85
2022/05/16 00:09:03;;;;;;;5.88;0.88;;;17.20;72.60;;;;;;4974863;28;20124;-85
2022/05/16 00:11:29;;;;;;;6.82;1.13;;;17.10;72.80;;;;;;4975527;28;20073;-86
2022/05/16 00:13:55;;;;;;;9.32;1.20;;;17.10;73.00;;;;;;4978867;28;20498;-85
2022/05/16 00:16:20;;;;;;;7.80;1.35;;;17.10;73.40;;;;;;4995338;28;20022;-85
2022/05/16 00:18:46;;;;;;;7.45;2.33;;;17.00;73.50;;;;;;4969777;28;20023;-85
2022/05/16 00:21:11;;;;;;;6.72;1.38;;;17.00;73.70;;;;;;4974957;28;20019;-85
2022/05/16 00:23:37;;;;;;;7.65;1.50;;;17.00;73.90;;;;;;4979802;28;20058;-85
2022/05/16 00:26:03;;;;;;;6.78;1.50;;;17.00;74.00;;;;;;4977774;28;20030;-84
2022/05/16 00:28:28;;;;;;;9.93;1.27;;;16.90;74.90;;;;;;4972999;28;20034;-85
2022/05/16 00:30:54;;;;;;;7.22;1.02;;;16.90;74.40;;;;;;4978728;28;20062;-85
2022/05/16 00:33:20;;;;;;;9.20;1.30;;;16.90;74.60;;;;;;4979346;28;20018;-83
2022/05/16 00:35:45;;;;;;;9.75;1.35;;;16.80;74.80;;;;;;4978436;28;20037;-83
2022/05/16 00:38:11;;;;;;;6.97;1.00;;;16.80;75.00;;;;;;4978656;28;20037;-84
2022/05/16 00:40:36;;;;;;;8.50;0.80;;;16.80;75.20;;;;;;4978163;28;20026;-85
2022/05/16 00:43:08;;;;;;;9.38;1.17;;;16.80;75.50;;;;;;4976337;28;20384;-84
2022/05/16 00:45:34;;;;;;;5.97;0.88;;;16.80;75.70;;;;;;4991163;28;20352;-84
2022/05/16 00:48:00;;;;;;;5.40;0.82;;;16.60;75.90;;;;;;4977431;28;20035;-85
2022/05/16 00:50:26;;;;;;;6.03;1.38;;;16.70;76.20;;;;;;4978353;28;20157;-86
2022/05/16 00:52:52;;;;;;;5.90;1.35;;;16.60;76.50;;;;;;4978963;28;20518;-85
2022/05/16 00:55:27;;;;;;;7.32;0.90;;;16.50;76.70;;;;;;4973199;28;20031;-85
2022/05/16 00:57:56;;;;;;;6.72;0.95;;;16.60;77.10;;;;;;4977427;28;20032;-84
2022/05/16 01:00:26;;;;;;;5.15;1.23;;;16.50;77.30;;;;;;4969896;28;20023;-85
2022/05/16 01:05:39;;;;;;;6.57;1.10;;;16.50;78.40;;;;;;4983723;28;20034;-85
2022/05/16 01:08:15;;;;;;;7.53;1.45;;;16.50;78.00;;;;;;4978149;28;20026;-83
2022/05/16 01:10:41;;;;;;;9.50;1.92;;;16.40;78.20;;;;;;4977501;28;20037;-84
2022/05/16 01:13:07;;;;;;;10.25;1.35;;;16.40;78.40;;;;;;4977746;28;20030;-84
2022/05/16 01:15:38;;;;;;;10.95;1.83;;;16.40;78.80;;;;;;4977516;28;20034;-85
2022/05/16 01:18:08;;;;;;;9.18;1.77;;;16.30;79.10;;;;;;4974766;28;20897;-84
2022/05/16 01:21:11;;;;;;;4.15;1.02;;;16.30;79.60;;;;;;4970773;28;20105;-85
2022/05/16 01:23:48;;;;;;;5.93;1.10;;;16.20;79.70;;;;;;4964600;28;20054;-84
2022/05/16 01:26:18;;;;;;;5.85;1.20;;;16.20;80.10;;;;;;4972110;28;20520;-84
2022/05/16 01:28:43;;;;;;;6.60;1.65;;;16.20;80.50;;;;;;4974266;28;20072;-83
2022/05/16 01:31:09;;;;;;;5.20;1.48;;;16.10;81.00;;;;;;4957947;28;20050;-84
2022/05/16 01:33:35;;;;;;;7.45;1.33;;;16.00;81.10;;;;;;4978664;28;20410;-83
2022/05/16 01:36:00;;;;;;;4.53;1.50;;;16.00;81.50;;;;;;4973572;28;20541;-84
2022/05/16 01:38:28;;;;;;;9.23;1.55;;;16.00;81.90;;;;;;4976054;28;20022;-84
2022/05/16 01:41:22;;;;;;;7.40;1.05;;;16.00;82.20;;;;;;4968009;28;20026;-84
2022/05/16 01:43:55;;;;;;;6.97;1.23;;;15.90;82.50;;;;;;4973260;28;20053;-82
2022/05/16 01:46:37;;;;;;;8.27;1.20;;;15.90;83.10;;;;;;4965076;28;20063;-84
2022/05/16 01:49:04;;;;;;;9.48;1.42;;;15.90;83.40;;;;;;4976132;28;20121;-84
2022/05/16 01:51:30;;;;;;;8.93;1.95;;;15.80;83.70;;;;;;4977263;28;20452;-85
2022/05/16 01:53:56;;;;;;;6.82;1.48;;;15.80;84.00;;;;;;4977296;28;20046;-86
2022/05/16 01:56:22;;;;;;;10.05;1.80;;;15.80;84.40;;;;;;4967000;28;20395;-85
2022/05/16 01:58:48;;;;;;;8.65;1.98;;;15.80;84.70;;;;;;4984849;28;20244;-86
2022/05/16 02:01:14;;;;;;;11.30;1.80;;;15.80;85.10;;;;;;4976953;28;20026;-85
2022/05/16 02:03:43;;;;;;;8.38;1.30;;;15.80;85.60;;;;;;4970833;28;20145;-85
2022/05/16 02:06:09;;;;;;;9.25;1.80;;;15.80;86.00;;;;;;4974796;28;20096;-84
2022/05/16 02:08:35;;;;;;;9.75;1.60;;;15.70;86.50;;;;;;4962024;28;20117;-84
2022/05/16 02:11:06;;;;;;;7.38;1.65;;;15.70;87.10;;;;;;4968119;28;20166;-84
2022/05/16 02:13:36;;;;;;;8.52;1.70;;;15.60;87.40;;;;;;4988714;28;20018;-84
2022/05/16 02:16:02;;;;;;;10.80;1.73;;;15.60;88.00;;;;;;4993122;28;20045;-84
2022/05/16 02:18:27;;;;;;;5.35;1.23;;;15.50;88.40;;;;;;4976351;28;20101;-84
2022/05/16 02:24:38;;;;;;;6.95;1.48;;;15.50;89.10;;;;;;4976671;28;20026;-84
2022/05/16 02:26:23;;;;;;;7.05;1.70;;;15.40;90.20;;;;;;4986968;28;20034;-84
2022/05/16 02:28:49;;;;;;;8.13;2.40;;;15.30;90.50;;;;;;4981930;28;20031;-84
2022/05/16 02:31:14;;;;;;;12.40;3.15;;;15.30;90.80;;;;;;4992487;28;20471;-84
2022/05/16 02:33:40;;;;;;;9.48;1.83;;;15.20;91.10;;;;;;4965634;28;20033;-84
2022/05/16 02:36:05;;;;;;;7.97;2.10;;;15.20;91.30;;;;;;4976307;28;20026;-84
2022/05/16 02:38:31;;;;;;;8.85;2.10;;;15.20;91.60;;;;;;4976669;28;20400;-85
2022/05/16 02:40:56;;;;;;;6.40;1.90;;;15.20;91.90;;;;;;4961338;28;20482;-84
2022/05/16 02:43:22;;;;;;;6.80;1.30;;;15.10;92.20;;;;;;4969261;28;20073;-84
2022/05/16 02:45:47;;;;;;;7.00;2.58;;;15.10;92.50;;;;;;4988568;28;20101;-85
2022/05/16 02:48:13;;;;;;;6.47;1.92;;;15.10;92.90;;;;;;4967908;28;20036;-85
2022/05/16 02:50:41;;;;;;;10.95;2.05;;;15.00;93.00;;;;;;4975429;28;20026;-83
2022/05/16 02:53:07;;;;;;;9.43;2.35;;;15.00;93.20;;;;;;4967973;28;20093;-86
2022/05/16 02:55:33;;;;;;;10.30;2.10;;;15.00;93.60;;;;;;4971972;28;20022;-85
2022/05/16 02:57:59;;;;;;;10.05;2.22;;;15.00;93.90;;;;;;4964456;28;20134;-84
2022/05/16 03:00:24;;;;;;;11.50;2.28;;;14.90;94.30;;;;;;4969895;28;20095;-85
2022/05/16 03:02:50;;;;;;;8.18;2.05;;;14.90;94.50;;;;;;4972999;28;20157;-85
2022/05/16 03:05:16;;;;;;;8.38;2.08;;;14.80;94.90;;;;;;4968431;28;20030;-85
2022/05/16 03:07:41;;;;;;;7.53;2.47;;;14.80;95.20;;;;;;4970078;28;20034;-85
2022/05/16 03:10:08;;;;;;;8.50;2.15;;;14.80;95.40;;;;;;4974306;28;20036;-85
2022/05/16 03:12:34;;;;;;;9.82;2.33;;;14.70;95.80;;;;;;4975537;28;20547;-85
2022/05/16 03:15:00;;;;;;;10.45;2.22;;;14.60;96.20;;;;;;4975394;28;20085;-85
2022/05/16 03:17:26;;;;;;;6.18;1.88;;;14.50;96.50;;;;;;4971937;28;20065;-84
2022/05/16 03:19:51;;;;;;;8.20;1.38;;;14.50;96.80;;;;;;4979771;28;20062;-84
2022/05/16 03:22:17;;;;;;;8.30;2.28;;;14.50;97.10;;;;;;4975634;28;20140;-84
2022/05/16 03:24:43;;;;;;;6.53;2.10;;;14.50;97.40;;;;;;4990821;28;20511;-85
2022/05/16 03:27:09;;;;;;;6.70;2.33;;;14.40;97.60;;;;;;4991845;28;20121;-84
2022/05/16 03:29:35;;;;;;;10.07;2.08;;;14.30;97.90;;;;;;4975286;28;20168;-85
2022/05/16 03:32:01;;;;;;;6.13;2.67;;;14.30;98.20;;;;;;4974352;28;20466;-85
2022/05/16 03:34:26;;;;;;;9.88;2.60;;;14.30;98.60;;;;;;4974603;28;20847;-83
2022/05/16 03:36:52;;;;;;;8.95;2.22;;;14.20;98.80;;;;;;4973653;28;20034;-84
2022/05/16 03:42:01;;;;;;;7.45;2.25;;;14.20;99.30;;;;;;4986386;28;20041;-84
2022/05/16 03:44:27;;;;;;;8.20;2.80;;;14.20;99.40;;;;;;4991103;28;20132;-84
2022/05/16 03:46:52;;;;;;;7.63;2.85;;;14.20;99.50;;;;;;4960446;28;20031;-84
2022/05/16 03:49:18;;;;;;;7.68;2.35;;;14.20;99.60;;;;;;4982336;28;20034;-84
2022/05/16 03:51:44;;;;;;;6.90;2.22;;;14.20;99.80;;;;;;4970846;28;20026;-85
2022/05/16 03:54:09;;;;;;;7.65;2.67;;;14.10;99.90;;;;;;4974405;28;20121;-85
2022/05/16 03:56:35;;;;;;;8.82;2.72;;;14.10;99.90;;;;;;4969671;28;20019;-82
2022/05/16 03:59:01;;;;;;;11.27;2.80;;;14.10;99.90;;;;;;4972492;28;20082;-83
2022/05/16 04:01:27;;;;;;;9.98;3.13;;;14.00;99.90;;;;;;4975146;28;20117;-84
2022/05/16 04:03:53;;;;;;;7.68;2.75;;;14.00;99.90;;;;;;4973934;28;20038;-84
2022/05/16 04:06:19;;;;;;;10.95;2.63;;;14.00;99.90;;;;;;4975444;28;20029;-84
2022/05/16 04:08:46;;;;;;;8.63;3.00;;;14.00;99.90;;;;;;4975525;28;20511;-84
2022/05/16 04:11:17;;;;;;;9.57;2.55;;;14.00;99.90;;;;;;4972713;28;20026;-84
2022/05/16 04:13:44;;;;;;;7.70;2.60;;;13.90;99.90;;;;;;4974391;28;20035;-84
2022/05/16 04:16:09;;;;;;;9.95;3.40;;;13.90;99.90;;;;;;4990339;28;20056;-84
2022/05/16 04:18:36;;;;;;;9.02;2.67;;;13.90;99.90;;;;;;4972728;28;20023;-85
2022/05/16 04:21:02;;;;;;;8.88;2.83;;;13.90;99.90;;;;;;4987781;28;20435;-84
2022/05/16 04:23:28;;;;;;;10.90;2.90;;;13.90;99.90;;;;;;4984304;28;20042;-84
2022/05/16 04:25:53;;;;;;;6.60;2.30;;;13.90;99.90;;;;;;4968923;28;20468;-85
2022/05/16 04:28:19;;;;;;;8.32;2.65;;;13.90;99.90;;;;;;4966014;28;20074;-85
2022/05/16 04:30:44;;;;;;;10.32;2.55;;;14.00;99.90;;;;;;4975265;28;20059;-85
2022/05/16 04:33:10;;;;;;;9.20;2.80;;;14.00;99.90;;;;;;4974466;28;20034;-85
2022/05/16 04:35:38;;;;;;;9.60;3.00;;;14.10;99.90;;;;;;4974632;28;20441;-84
2022/05/16 04:38:04;;;;;;;12.60;3.42;;;14.10;99.90;;;;;;4973407;28;20084;-85
2022/05/16 04:40:30;;;;;;;7.88;2.78;;;14.20;99.90;;;;;;4965930;28;20077;-85
2022/05/16 04:42:57;;;;;;;8.40;1.98;;;14.30;99.90;;;;;;4973696;28;20046;-83
2022/05/16 04:45:28;;;;;;;8.23;2.08;;;14.30;99.90;;;;;;4970120;28;20022;-85
2022/05/16 04:48:00;;;;;;;7.22;2.17;;;14.40;99.90;;;;;;4973833;28;20154;-85
2022/05/16 04:50:29;;;;;;;6.72;2.25;;;14.50;99.90;;;;;;4972073;28;20030;-86
2022/05/16 04:52:56;;;;;;;6.25;1.92;;;14.70;99.90;;;;;;4973868;28;20100;-85
2022/05/16 04:55:22;;;;;;;5.30;1.77;;;14.90;99.90;;;;;;4975090;28;20471;-85
2022/05/16 04:57:48;;;;;;;8.30;2.50;;;15.10;99.90;;;;;;4973758;28;20048;-85
2022/05/16 05:00:15;;;;;;;7.22;2.30;;;15.30;99.90;;;;;;4969496;28;20038;-84
2022/05/16 05:02:41;;;;;;;8.05;1.73;;;15.40;99.90;;;;;;4977298;28;20069;-85
2022/05/16 05:05:08;;;;;;;5.00;1.23;;;15.60;99.90;;;;;;4971731;28;20057;-85
2022/05/16 05:07:35;;;;;;;9.02;2.28;;;15.70;99.90;;;;;;4978360;28;20046;-83
2022/05/16 05:15:28;;;;;;;9.52;2.03;;;16.20;99.90;;;;;;4990588;28;20045;-83
2022/05/16 05:17:54;;;;;;;4.43;2.00;;;16.40;99.90;;;;;;4973115;28;20030;-83
2022/05/16 05:20:19;;;;;;;7.78;1.98;;;16.70;99.90;;;;;;4987633;28;20031;-84
2022/05/16 05:22:46;;;;;;;9.20;1.73;;;17.10;99.60;;;;;;4971508;28;20070;-83
2022/05/16 05:25:15;;;;;;;8.45;1.70;;;17.50;99.10;;;;;;4968550;28;20041;-84
2022/05/16 05:27:42;;;;;;;5.95;1.77;;;17.90;98.40;;;;;;4976534;28;20038;-84
2022/05/16 05:30:10;;;;;;;6.30;1.70;;;18.20;97.90;;;;;;4975986;28;20386;-84
2022/05/16 05:32:36;;;;;;;7.18;2.40;;;18.40;96.90;;;;;;4970343;28;20037;-84
2022/05/16 05:35:03;;;;;;;7.15;2.30;;;18.60;96.30;;;;;;4987549;28;20082;-84
2022/05/16 05:37:29;;;;;;;7.80;1.95;;;18.50;95.70;;;;;;4970693;28;20396;-83
2022/05/16 05:39:58;;;;;;;12.02;1.95;;;18.50;95.40;;;;;;4971173;28;20026;-84
2022/05/16 05:42:24;;;;;;;8.40;2.40;;;18.60;95.10;;;;;;4971477;28;20033;-84
2022/05/16 05:44:50;;;;;;;11.35;2.40;;;18.70;94.60;;;;;;4975489;28;20034;-84
2022/05/16 05:47:15;;;;;;;9.52;2.20;;;18.80;94.40;;;;;;4993615;28;20026;-83
2022/05/16 05:49:41;;;;;;;8.32;2.28;;;18.90;93.90;;;;;;4977861;28;20031;-84
2022/05/16 05:52:06;;;;;;;7.90;2.05;;;18.90;93.30;;;;;;4971397;28;20023;-84
2022/05/16 05:54:32;;;;;;;8.77;2.00;;;19.10;93.30;;;;;;4970756;28;20050;-84
2022/05/16 05:56:57;;;;;;;8.23;2.25;;;19.30;93.10;;;;;;4993717;28;20105;-85
2022/05/16 05:59:24;;;;;;;5.47;2.22;;;19.50;92.70;;;;;;4976742;28;20026;-85
2022/05/16 06:01:49;;;;;;;6.18;2.30;;;19.70;92.10;;;;;;4967524;28;20038;-83
2022/05/16 06:04:15;;;;;;;7.63;2.45;;;19.90;91.50;;;;;;4976629;28;20030;-84
2022/05/16 06:06:42;;;;;;;9.30;1.90;;;19.90;91.20;;;;;;4977538;28;20426;-82
2022/05/16 06:09:08;;;;;;;10.70;2.40;;;19.90;91.10;;;;;;4992270;28;20479;-84
2022/05/16 06:11:33;;;;;;;13.15;2.47;;;19.80;91.10;;;;;;4976572;28;20025;-83
2022/05/16 06:13:59;;;;;;;7.53;2.63;;;19.80;91.20;;;;;;4977219;28;20934;-85
2022/05/16 06:16:24;;;;;;;7.20;1.58;;;19.90;91.40;;;;;;4975828;28;20026;-84
2022/05/16 06:18:50;;;;;;;7.00;1.85;;;20.00;91.30;;;;;;4970773;28;20039;-85
2022/05/16 06:21:15;;;;;;;11.98;1.83;;;20.30;91.00;;;;;;4975495;28;20073;-85
2022/05/16 06:23:41;;;;;;;5.95;2.45;;;20.50;90.50;;;;;;4993995;28;20410;-85
2022/05/16 06:26:07;;;;;;;8.65;1.75;;;20.70;90.20;;;;;;4977287;28;20026;-85
2022/05/16 06:28:37;;;;;;;8.45;1.70;;;20.90;89.60;;;;;;4970539;28;20034;-85
2022/05/16 06:31:04;;;;;;;11.90;2.33;;;20.90;88.70;;;;;;4972442;28;20054;-85
2022/05/16 06:33:29;;;;;;;6.90;2.28;;;20.80;88.00;;;;;;4993724;28;20041;-83
2022/05/16 06:35:56;;;;;;;7.20;2.35;;;20.70;88.60;;;;;;4974205;28;20395;-83
2022/05/16 06:38:25;;;;;;;8.73;2.63;;;20.50;88.80;;;;;;4976705;28;20026;-84
2022/05/16 06:40:51;;;;;;;6.63;2.20;;;20.50;89.00;;;;;;4977169;28;20033;-83
2022/05/16 06:43:19;;;;;;;11.43;2.47;;;20.30;89.40;;;;;;4976256;28;20042;-85
2022/05/16 06:45:45;;;;;;;5.07;2.13;;;20.30;89.70;;;;;;4973622;28;20026;-84
2022/05/16 06:48:11;;;;;;;5.88;2.63;;;20.30;89.70;;;;;;4974936;28;20407;-85
2022/05/16 06:50:39;;;;;;;7.82;2.35;;;20.30;89.90;;;;;;4976549;28;20069;-85
2022/05/16 06:53:05;;;;;;;5.75;2.55;;;20.30;90.20;;;;;;4975861;28;20035;-84
2022/05/16 06:55:30;;;;;;;8.65;2.47;;;20.30;90.10;;;;;;4974372;28;20023;-85
2022/05/16 06:57:56;;;;;;;6.28;2.22;;;20.30;90.00;;;;;;4976117;28;20387;-84
2022/05/16 07:00:22;;;;;;;6.70;2.10;;;20.20;90.10;;;;;;4975373;28;20022;-85
2022/05/16 07:02:48;;;;;;;7.05;2.45;;;20.30;90.10;;;;;;4976508;28;20453;-85
2022/05/16 07:05:14;;;;;;;8.63;2.60;;;20.30;89.90;;;;;;4976049;28;20019;-84
2022/05/16 07:07:40;;;;;;;6.70;2.40;;;20.30;90.00;;;;;;4975678;28;20478;-84
2022/05/16 07:10:07;;;;;;;6.50;2.67;;;20.30;89.80;;;;;;4976131;28;20029;-84
2022/05/16 07:12:32;;;;;;;10.93;3.20;;;20.30;89.80;;;;;;4976262;28;20030;-85
2022/05/16 07:14:58;;;;;;;7.13;2.78;;;20.30;89.60;;;;;;4992839;28;20065;-85
2022/05/16 07:17:23;;;;;;;7.40;2.67;;;20.40;89.50;;;;;;4970650;28;20491;-84
2022/05/16 07:19:49;;;;;;;8.18;3.08;;;20.50;89.70;;;;;;4974209;28;20394;-83
2022/05/16 07:22:19;;;;;;;5.75;2.88;;;20.60;89.70;;;;;;4972205;28;20503;-83
2022/05/16 07:24:45;;;;;;;7.28;2.67;;;20.80;90.00;;;;;;4967092;28;20122;-83
2022/05/16 07:29:56;;;;;;;8.02;3.15;;;21.50;88.70;;;;;;4992826;28;20122;-83
2022/05/16 07:32:23;;;;;;;9.15;3.13;;;21.80;87.40;;;;;;4975878;28;20390;-84
2022/05/16 07:34:49;;;;;;;11.93;3.50;;;22.00;86.50;;;;;;4976168;28;20027;-84
2022/05/16 07:37:14;;;;;;;9.18;3.60;;;22.10;85.70;;;;;;4971857;28;20570;-84
2022/05/16 07:39:40;;;;;;;10.30;4.18;;;22.10;85.30;;;;;;4974836;28;20133;-83
2022/05/16 07:42:09;;;;;;;11.77;4.05;;;22.20;85.90;;;;;;4968964;28;20082;-83
2022/05/16 07:44:36;;;;;;;9.23;3.67;;;22.30;85.50;;;;;;4972305;28;20031;-84
2022/05/16 07:47:01;;;;;;;8.57;3.75;;;22.40;85.80;;;;;;4968790;28;20022;-83
2022/05/16 07:49:27;;;;;;;9.65;4.70;;;22.60;84.90;;;;;;4975006;28;20111;-84
2022/05/16 07:51:52;;;;;;;11.15;4.50;;;22.70;84.20;;;;;;4974507;28;20037;-83
2022/05/16 07:54:18;;;;;;;10.18;4.32;;;22.70;83.70;;;;;;4973067;28;20038;-83
2022/05/16 07:56:44;;;;;;;9.07;3.72;;;22.80;84.00;;;;;;4972080;28;20027;-83
2022/05/16 07:59:09;;;;;;;6.60;3.78;;;22.80;83.80;;;;;;4962129;28;20123;-83
2022/05/16 08:01:36;;;;;;;8.25;4.22;;;22.90;83.10;;;;;;4974207;28;20027;-83
2022/05/16 08:04:06;;;;;;;9.15;4.00;;;22.90;83.30;;;;;;4992211;28;20038;-83
2022/05/16 08:06:32;;;;;;;7.63;4.35;;;23.10;82.80;;;;;;4970334;28;20020;-83
2022/05/16 08:11:42;;;;;;;11.00;4.57;;;23.30;81.50;;;;;;4988570;28;20101;-83
2022/05/16 08:14:07;;;;;;;11.57;4.55;;;23.40;81.40;;;;;;4955877;28;20027;-83
2022/05/16 08:16:33;;;;;;;9.02;4.22;;;23.50;81.40;;;;;;4970318;28;20487;-83
2022/05/16 08:18:58;;;;;;;8.18;4.18;;;23.60;80.90;;;;;;4973881;28;20026;-84
2022/05/16 08:21:24;;;;;;;11.20;4.15;;;23.70;80.90;;;;;;4969849;28;20027;-84
2022/05/16 08:23:50;;;;;;;7.90;4.32;;;23.70;80.00;;;;;;4992585;28;20057;-84
2022/05/16 08:26:15;;;;;;;9.57;4.45;;;23.70;80.40;;;;;;4975409;28;20474;-84
2022/05/16 08:28:42;;;;;;;10.18;4.43;;;23.70;80.80;;;;;;4974675;28;20032;-84
2022/05/16 08:31:08;;;;;;;8.38;4.40;;;23.70;80.70;;;;;;4974758;28;20080;-84
2022/05/16 08:33:35;;;;;;;7.20;4.57;;;23.70;80.90;;;;;;4975406;28;20026;-84
2022/05/16 08:41:35;;;;;;;9.35;5.03;;;23.80;80.70;;;;;;4984643;28;20054;-84
2022/05/16 08:44:11;;;;;;;8.95;4.38;;;23.80;80.80;;;;;;4976455;28;20133;-83
2022/05/16 08:46:46;;;;;;;10.05;4.47;;;23.90;80.10;;;;;;4977892;28;20498;-83
2022/05/16 08:49:21;;;;;;;7.22;4.22;;;23.90;80.00;;;;;;4976419;28;20056;-84
2022/05/16 08:51:52;;;;;;;7.20;4.18;;;23.90;79.60;;;;;;4975612;28;20023;-84
2022/05/16 08:54:26;;;;;;;8.07;5.05;;;24.00;80.40;;;;;;4963002;28;20081;-84
2022/05/16 08:56:53;;;;;;;11.82;4.70;;;24.00;80.40;;;;;;4978736;28;20026;-83
2022/05/16 08:59:23;;;;;;;9.43;4.63;;;24.00;80.40;;;;;;4977821;28;20026;-84
2022/05/16 09:01:55;;;;;;;6.32;3.95;;;24.10;80.50;;;;;;4995980;28;20487;-83
2022/05/16 09:04:30;;;;;;;12.18;4.18;;;24.20;80.80;;;;;;4978039;28;20117;-84
2022/05/16 09:07:09;;;;;;;7.47;3.47;;;24.30;79.90;;;;;;4978435;28;20562;-84
2022/05/16 09:10:06;;;;;;;10.80;4.65;;;24.50;79.70;;;;;;4973469;28;20027;-84
2022/05/16 09:13:04;;;;;;;8.27;3.95;;;24.60;78.30;;;;;;4974934;28;20505;-84
2022/05/16 09:16:00;;;;;;;5.30;2.85;;;24.60;78.30;;;;;;4989107;28;20113;-84
2022/05/16 09:19:04;;;;;;;7.38;3.85;;;24.60;78.30;;;;;;4977428;28;20029;-84
2022/05/16 09:22:01;;;;;;;7.68;3.42;;;24.70;78.20;;;;;;4920227;29;20155;-84
2022/05/16 09:24:37;;;;;;;10.30;3.60;;;25.00;77.60;;;;;;4915933;29;20052;-83
2022/05/16 09:30:25;;;;;;;7.97;3.35;;;25.20;76.70;;;;;;4986106;28;20045;-84
2022/05/16 09:32:59;;;;;;;10.73;3.17;;;25.40;76.30;;;;;;4977392;28;20497;-83
2022/05/16 09:36:03;;;;;;;8.80;2.92;;;25.40;76.70;;;;;;4977701;28;20041;-83
2022/05/16 09:38:29;;;;;;;7.10;3.95;;;25.60;76.30;;;;;;4969191;28;20030;-84
2022/05/16 09:41:01;;;;;;;9.77;4.13;;;25.50;75.10;;;;;;4964494;28;20386;-84
2022/05/16 09:43:32;;;;;;;6.32;3.78;;;25.60;75.70;;;;;;4977720;28;20038;-83
2022/05/16 09:46:23;;;;;;;12.50;4.57;;;25.60;75.40;;;;;;4971104;28;20034;-84
2022/05/16 09:49:11;;;;;;;6.72;3.33;;;25.80;75.60;;;;;;4964624;28;20122;-84
2022/05/16 09:51:50;;;;;;;7.80;3.55;;;25.90;75.30;;;;;;4976578;28;20158;-84
2022/05/16 09:54:28;;;;;;;5.88;2.90;;;25.90;74.00;;;;;;4994944;28;20081;-85
2022/05/16 09:57:03;;;;;;;6.70;2.58;;;26.00;74.40;;;;;;4966639;28;20030;-85
2022/05/16 09:59:42;;;;;;;7.60;3.00;;;26.10;74.50;;;;;;4985602;28;20033;-84
2022/05/16 10:02:29;;;;;;;8.70;3.17;;;26.20;73.90;;;;;;4970160;28;20081;-85
2022/05/16 10:04:58;;;;;;;5.88;3.30;;;26.40;73.70;;;;;;4966600;28;20031;-85
2022/05/16 10:07:49;;;;;;;8.82;3.33;;;26.40;72.60;;;;;;4976721;28;20027;-84
2022/05/16 10:10:19;;;;;;;6.70;2.58;;;26.40;72.40;;;;;;4976807;28;20046;-85
2022/05/16 10:12:45;;;;;;;7.30;3.05;;;26.40;72.80;;;;;;4976983;28;20054;-85
2022/05/16 10:15:11;;;;;;;7.50;2.25;;;26.40;73.40;;;;;;4974139;28;20060;-85
2022/05/16 10:17:40;;;;;;;7.43;3.08;;;26.50;73.50;;;;;;4974934;28;20030;-85
2022/05/16 10:20:13;;;;;;;8.43;3.08;;;26.80;72.80;;;;;;4976622;28;20027;-85
2022/05/16 10:22:39;;;;;;;7.20;2.38;;;27.10;72.60;;;;;;4994525;28;20512;-84
2022/05/16 10:25:10;;;;;;;4.88;2.53;;;27.40;72.60;;;;;;4977162;28;20070;-85
2022/05/16 10:27:37;;;;;;;6.40;3.25;;;27.80;71.20;;;;;;4970634;28;20125;-85
2022/05/16 10:30:08;;;;;;;7.80;2.50;;;28.10;70.50;;;;;;4976444;28;20030;-85
2022/05/16 10:35:31;;;;;;;8.15;1.65;;;28.50;69.00;;;;;;4994963;28;20362;-85
2022/05/16 10:38:02;;;;;;;5.38;1.83;;;28.80;68.30;;;;;;4973855;28;20169;-85
2022/05/16 10:40:31;;;;;;;7.65;2.20;;;29.10;67.80;;;;;;4960873;28;20474;-84
2022/05/16 10:43:02;;;;;;;4.93;1.85;;;29.30;66.30;;;;;;4976711;28;20113;-85
2022/05/16 10:45:31;;;;;;;3.90;1.70;;;29.50;64.70;;;;;;4976791;28;20023;-85
2022/05/16 10:48:05;;;;;;;7.22;2.08;;;29.40;64.00;;;;;;4976460;28;20106;-84
2022/05/16 10:50:46;;;;;;;4.28;2.90;;;29.20;64.30;;;;;;4976368;28;20026;-85
2022/05/16 10:53:17;;;;;;;9.98;2.63;;;29.00;64.80;;;;;;4976350;28;20038;-87
2022/05/16 10:55:55;;;;;;;8.13;3.17;;;28.70;65.50;;;;;;4974939;28;20022;-84
2022/05/16 10:58:47;;;;;;;7.38;3.30;;;28.50;65.80;;;;;;4973172;28;20501;-84
2022/05/16 11:01:21;;;;;;;7.78;3.53;;;28.30;65.80;;;;;;4971202;28;20031;-85
2022/05/16 11:04:15;;;;;;;5.78;3.10;;;27.90;66.40;;;;;;4970353;28;20518;-85
2022/05/16 11:06:48;;;;;;;9.32;3.53;;;27.70;66.60;;;;;;4983339;28;20030;-85
2022/05/16 11:09:33;;;;;;;8.02;3.17;;;27.60;67.80;;;;;;4968534;28;20388;-85
2022/05/16 11:12:25;;;;;;;6.10;2.30;;;27.50;68.30;;;;;;4969809;28;20030;-85
2022/05/16 11:15:12;;;;;;;9.18;2.03;;;27.30;69.40;;;;;;4972343;28;20034;-85
2022/05/16 11:17:58;;;;;;;8.82;1.75;;;27.00;70.70;;;;;;4968564;28;20058;-85
2022/05/16 11:20:38;;;;;;;10.00;1.35;;;26.60;70.30;;;;;;4993535;28;20126;-84
2022/05/16 11:23:41;;;;;;;6.00;1.00;;;26.10;71.50;;;;;;4972262;28;20059;-84
2022/05/16 11:26:31;;;;;;;4.82;1.17;;;25.60;73.00;;;;;;4975106;28;20403;-84
2022/05/16 11:29:17;;;;;;;3.65;1.10;;;25.40;74.60;;;;;;4969473;28;20039;-84
2022/05/16 11:32:08;;;;;;;7.05;1.55;;;25.20;74.80;;;;;;4974998;28;20035;-84
2022/05/16 11:34:45;;;;;;;6.15;1.48;;;25.10;75.80;;;;;;4974289;28;20130;-84
2022/05/16 11:37:57;;;;;;;5.68;1.60;;;25.10;77.40;;;;;;4975350;28;20466;-84
2022/05/16 11:40:54;;;;;;;5.95;1.35;;;25.40;77.60;;;;;;4939157;28;20030;-85
2022/05/16 11:43:26;;;;;;;3.92;1.90;;;25.20;78.20;;;;;;4975795;28;20041;-84
2022/05/16 11:46:07;;;;;;;6.15;1.60;;;25.10;79.10;;;;;;4992637;28;20125;-83
2022/05/16 11:48:51;;;;;;;5.80;1.83;;;24.90;80.30;;;;;;4971525;28;20053;-84
2022/05/16 11:51:33;;;;;;;4.47;1.95;;;24.80;83.00;;;;;;4974675;28;20165;-85
2022/05/16 11:54:02;;;;;;;8.40;2.67;;;24.50;85.40;;;;;;4975818;28;20030;-84
2022/05/16 12:02:17;;;;;;;9.10;4.43;;;23.70;91.10;;;;;;4992123;28;20045;-84
2022/05/16 12:05:07;;;;;;;5.57;3.20;;;23.50;91.60;;;;;;4992983;28;20034;-84
2022/05/16 12:07:42;;;;;;;8.77;3.75;;;23.40;92.10;;;;;;4989514;28;20025;-84
2022/05/16 12:10:10;;;;;;;10.80;4.10;;;23.20;92.80;;;;;;4987644;28;20034;-84
2022/05/16 12:12:42;;;;;;;9.65;3.75;;;23.10;93.30;;;;;;4975408;28;20054;-84
2022/05/16 12:15:14;;;;;;;6.90;2.88;;;23.00;93.80;;;;;;4992497;28;20035;-84
2022/05/16 12:17:50;;;;;;;4.72;2.40;;;22.80;94.30;;;;;;4992553;28;20439;-84
2022/05/16 12:20:16;;;;;;;6.28;3.20;;;22.70;94.70;;;;;;4984578;28;20066;-84
2022/05/16 12:22:47;;;;;;;9.45;4.00;;;22.50;95.50;;;;;;4974658;28;20042;-84
2022/05/16 12:25:26;;;;;;;9.27;4.38;;;22.40;96.40;;;;;;4974949;28;20091;-84
2022/05/16 12:28:23;;;;;;;7.28;4.07;;;22.40;96.90;;;;;;4992040;28;20110;-84
2022/05/16 12:30:54;;;;;;;8.40;4.35;;;22.30;97.50;;;;;;4975013;28;20042;-84
2022/05/16 12:33:25;;;;;;;10.93;4.47;;;22.20;98.30;;;;;;4975180;28;20054;-84
2022/05/16 12:35:53;;;;;;;6.97;4.30;;;22.10;99.20;;;;;;4974867;28;20031;-84
2022/05/16 12:38:21;;;;;;;10.90;5.28;;;22.00;99.90;;;;;;4974457;28;20034;-83
2022/05/16 12:41:11;;;;;;;12.85;6.30;;;22.00;99.90;;;;;;4993140;28;20057;-84
2022/05/16 12:44:06;;;;;;;10.23;6.05;;;22.10;99.90;;;;;;4973000;28;20108;-84
2022/05/16 12:46:43;;;;;;;9.77;6.80;;;22.30;99.90;;;;;;4966519;28;20034;-84
2022/05/16 12:49:12;;;;;;;9.30;5.78;;;22.50;99.90;;;;;;4974288;28;20031;-85
2022/05/16 12:51:59;;;;;;;13.80;6.63;;;22.70;99.90;;;;;;4975493;28;20021;-85
2022/05/16 12:54:50;;;;;;;10.32;6.40;;;23.00;99.90;;;;;;4975191;28;20029;-84
2022/05/16 12:57:25;;;;;;;14.07;7.13;;;23.20;99.90;;;;;;4974073;28;20506;-85
2022/05/16 13:00:30;;;;;;;13.68;9.32;;;23.10;99.90;;;;;;4966874;28;20480;-84
2022/05/16 13:03:18;;;;;;;14.60;11.05;;;22.90;99.90;;;;;;4913763;28;20077;-84
2022/05/16 13:05:57;;;;;;;12.40;9.43;;;22.60;99.90;;;;;;4987017;28;20038;-85
2022/05/16 13:08:37;;;;;;;12.30;9.02;;;22.30;99.90;;;;;;4974576;28;20030;-85
2022/05/16 13:11:09;;;;;;;10.40;8.48;;;22.20;99.90;;;;;;4991836;28;20475;-85
2022/05/16 13:14:00;;;;;;;12.40;7.15;;;22.10;99.90;;;;;;4969950;28;20026;-87
2022/05/16 13:16:27;;;;;;;10.63;6.45;;;22.10;99.90;;;;;;4975880;28;20038;-90
2022/05/16 13:18:57;;;;;;;11.73;7.68;;;22.00;99.90;;;;;;4973796;28;20027;-89
2022/05/16 13:21:40;;;;;;;14.20;8.52;;;22.00;99.90;;;;;;4979198;28;20030;-90
2022/05/16 13:24:18;;;;;;;12.70;8.13;;;22.00;99.90;;;;;;4978910;28;20057;-91
2022/05/16 13:29:34;;;;;;;14.57;8.35;;;21.80;99.90;;;;;;4993111;28;20072;-84
2022/05/16 13:32:11;;;;;;;15.80;10.40;;;21.70;99.90;;;;;;4978091;28;20023;-84
2022/05/16 13:34:46;;;;;;;16.80;11.80;;;21.70;99.90;;;;;;4971700;28;20026;-84
2022/05/16 13:37:17;;;;;;;22.23;12.88;;;21.50;99.90;;;;;;4977834;28;20038;-84
2022/05/16 13:39:46;;;;;;;16.35;12.38;;;21.50;99.90;;;;;;4974563;28;20030;-84
2022/05/16 13:42:11;;;;;;;22.08;13.63;;;21.40;99.90;;;;;;4971246;28;20026;-84
2022/05/16 13:44:40;;;;;;;20.65;15.50;;;21.40;99.90;;;;;;4963310;28;20034;-84